Time;durP1;ratioP1;P1;durP2;ratioP2;P2;SDS_P1;SDS_P2;PMS_P1;PMS_P2;Temp;Humidity;BMP_temperature;BMP_pressure;BME280_temperature;BME280_humidity;BME280_pressure;Samples;Min_cycle;Max_cycle;Signal;HPM_P1;HPM_P2
2021/04/20 00:01:43;;;;;;;13.02;3.75;;;;;;;7.53;82.49;100986.97;4972198;28;20456;-73
2021/04/20 00:04:10;;;;;;;10.15;4.20;;;;;;;7.34;83.75;100988.66;4970974;28;20142;-74
2021/04/20 00:06:37;;;;;;;15.13;4.95;;;;;;;7.42;84.89;100990.94;4974162;28;20141;-72
2021/04/20 00:09:07;;;;;;;16.98;4.78;;;;;;;7.31;84.71;100989.59;4975965;28;20050;-73
2021/04/20 00:11:38;;;;;;;12.50;4.22;;;;;;;7.28;85.18;100994.94;4970240;28;20568;-72
2021/04/20 00:14:05;;;;;;;10.90;4.60;;;;;;;7.38;83.81;100981.50;4974890;28;20119;-73
2021/04/20 00:16:32;;;;;;;16.10;4.18;;;;;;;7.22;84.87;100974.25;4978598;28;20078;-73
2021/04/20 00:19:00;;;;;;;14.98;4.75;;;;;;;7.14;85.16;100981.56;4967904;28;20147;-73
2021/04/20 00:21:26;;;;;;;13.80;5.07;;;;;;;7.23;84.96;100982.97;4965858;28;20047;-73
2021/04/20 00:23:53;;;;;;;19.48;6.72;;;;;;;7.22;85.49;100978.66;4973071;28;20074;-73
2021/04/20 00:26:20;;;;;;;14.82;5.53;;;;;;;7.24;84.73;100982.03;4975591;28;20046;-74
2021/04/20 00:28:47;;;;;;;25.27;6.30;;;;;;;7.17;85.31;100977.97;4974160;28;20074;-74
2021/04/20 00:31:14;;;;;;;19.02;5.45;;;;;;;7.18;85.17;100972.66;4969560;28;20047;-73
2021/04/20 00:33:41;;;;;;;10.68;5.43;;;;;;;6.95;86.06;100981.41;4971120;28;20084;-74
2021/04/20 00:36:09;;;;;;;15.00;5.35;;;;;;;6.99;86.72;100982.16;4973015;28;20047;-74
2021/04/20 00:38:36;;;;;;;25.00;4.68;;;;;;;7.06;86.11;100974.00;4971714;28;20054;-73
2021/04/20 00:41:09;;;;;;;13.18;4.88;;;;;;;7.01;86.21;100973.31;4972899;28;20042;-71
2021/04/20 00:43:38;;;;;;;12.13;5.15;;;;;;;6.90;86.90;100977.28;4971820;28;20138;-71
2021/04/20 00:46:09;;;;;;;14.90;4.80;;;;;;;6.99;86.81;100983.00;4956324;28;20039;-73
2021/04/20 00:48:36;;;;;;;20.17;5.32;;;;;;;6.85;87.00;100980.06;4955483;28;20126;-72
2021/04/20 00:51:04;;;;;;;13.65;5.07;;;;;;;6.89;87.23;100981.66;4978175;28;20047;-73
2021/04/20 00:53:31;;;;;;;13.02;4.40;;;;;;;6.82;87.03;100974.94;4968613;28;20051;-72
2021/04/20 00:55:59;;;;;;;12.70;5.10;;;;;;;6.72;87.96;100963.97;4957507;28;20046;-73
2021/04/20 00:58:26;;;;;;;12.93;4.70;;;;;;;6.75;87.84;100968.22;4972509;28;20054;-73
2021/04/20 01:00:52;;;;;;;11.68;5.38;;;;;;;6.62;88.20;100970.47;4997120;28;20059;-74
2021/04/20 01:03:20;;;;;;;19.48;4.97;;;;;;;6.65;89.00;100969.47;4966054;28;20070;-73
2021/04/20 01:05:46;;;;;;;13.45;5.10;;;;;;;6.62;89.66;100957.38;4959512;28;20078;-72
2021/04/20 01:08:15;;;;;;;13.40;4.80;;;;;;;6.59;89.20;100960.09;4976525;28;20101;-72
2021/04/20 01:10:47;;;;;;;13.93;5.30;;;;;;;6.62;89.42;100957.38;4991734;28;20050;-72
2021/04/20 01:13:22;;;;;;;12.32;5.07;;;;;;;6.64;88.78;100950.31;4958547;28;20058;-72
2021/04/20 01:15:52;;;;;;;12.65;5.15;;;;;;;6.57;89.65;100946.22;4975970;28;20046;-74
2021/04/20 01:18:30;;;;;;;12.52;4.65;;;;;;;6.50;90.41;100955.22;4966167;28;20757;-72
2021/04/20 01:24:37;;;;;;;13.85;4.82;;;;;;;6.76;90.94;100956.88;4987250;28;20058;-72
2021/04/20 01:27:04;;;;;;;12.75;4.95;;;;;;;6.68;89.77;100956.28;4982207;28;20078;-72
2021/04/20 01:29:31;;;;;;;14.18;5.32;;;;;;;6.63;90.62;100956.47;4965046;28;20058;-72
2021/04/20 01:31:59;;;;;;;15.02;5.80;;;;;;;6.44;91.47;100958.91;4963566;28;20429;-73
2021/04/20 01:34:25;;;;;;;16.83;4.72;;;;;;;6.52;92.04;100953.38;4959860;28;20106;-73
2021/04/20 01:36:52;;;;;;;12.07;5.93;;;;;;;6.71;90.94;100941.34;4980002;28;20050;-73
2021/04/20 01:39:19;;;;;;;16.05;5.50;;;;;;;6.34;91.50;100940.06;4987243;28;20057;-75
2021/04/20 01:41:46;;;;;;;16.63;5.70;;;;;;;6.09;92.90;100953.16;4966828;28;20117;-73
2021/04/20 01:44:12;;;;;;;21.00;7.65;;;;;;;6.11;93.30;100954.88;4978622;28;20066;-72
2021/04/20 01:46:39;;;;;;;16.13;6.05;;;;;;;6.09;93.74;100949.72;4981745;28;20065;-72
2021/04/20 01:49:06;;;;;;;28.83;6.53;;;;;;;6.12;93.72;100957.41;4982599;28;20064;-72
2021/04/20 01:51:34;;;;;;;19.15;6.07;;;;;;;6.11;93.55;100954.88;4980189;28;20141;-72
2021/04/20 01:54:01;;;;;;;15.73;6.57;;;;;;;6.05;94.19;100953.34;4953913;28;20082;-71
2021/04/20 01:56:28;;;;;;;13.75;6.68;;;;;;;6.24;93.62;100956.16;4977243;28;20053;-70
2021/04/20 01:58:56;;;;;;;12.20;5.57;;;;;;;6.26;93.16;100955.19;4981170;28;20727;-71
2021/04/20 02:01:25;;;;;;;12.65;6.00;;;;;;;6.14;93.80;100960.00;4976732;28;20960;-72
2021/04/20 02:03:53;;;;;;;20.30;5.78;;;;;;;6.03;94.91;100963.84;4974147;28;20114;-72
2021/04/20 02:06:22;;;;;;;15.50;5.85;;;;;;;5.99;95.04;100946.56;4976408;28;20109;-71
2021/04/20 02:08:49;;;;;;;19.10;6.05;;;;;;;6.13;94.65;100946.09;4983974;28;20062;-72
2021/04/20 02:11:18;;;;;;;16.92;5.50;;;;;;;6.10;94.50;100948.78;4984205;28;20054;-72
2021/04/20 02:13:46;;;;;;;17.92;5.63;;;;;;;6.17;94.09;100944.19;4968789;28;20115;-71
2021/04/20 02:16:14;;;;;;;16.15;5.57;;;;;;;6.08;94.50;100953.25;4951163;28;20070;-72
2021/04/20 02:18:44;;;;;;;11.38;5.50;;;;;;;5.93;95.24;100938.06;4994478;23;20142;-80
2021/04/20 02:21:12;;;;;;;16.73;5.45;;;;;;;5.97;96.07;100939.69;4990688;28;20080;-82
2021/04/20 02:23:42;;;;;;;15.15;6.03;;;;;;;5.86;95.83;100931.34;4991085;28;20586;-82
2021/04/20 02:26:11;;;;;;;21.38;6.57;;;;;;;5.78;96.52;100942.03;4994468;28;20057;-82
2021/04/20 02:28:38;;;;;;;19.23;5.78;;;;;;;5.63;97.06;100938.19;4972064;28;20049;-81
2021/04/20 02:31:08;;;;;;;13.20;5.07;;;;;;;5.54;98.24;100941.13;4982670;28;20048;-82
2021/04/20 02:33:36;;;;;;;18.77;6.05;;;;;;;5.46;98.91;100933.53;4976072;28;20085;-81
2021/04/20 02:36:42;;;;;;;17.52;6.60;;;;;;;5.55;98.97;100932.38;4991568;28;20061;-82
2021/04/20 02:39:09;;;;;;;11.05;5.70;;;;;;;5.58;98.76;100935.75;4977309;28;20051;-82
2021/04/20 02:41:40;;;;;;;18.02;7.25;;;;;;;5.53;99.35;100934.16;4976723;28;20081;-83
2021/04/20 02:44:08;;;;;;;18.63;6.82;;;;;;;5.46;100.00;100935.28;4980674;28;20055;-80
2021/04/20 02:46:39;;;;;;;18.55;7.05;;;;;;;5.42;100.00;100931.91;4976308;28;20065;-83
2021/04/20 02:49:06;;;;;;;22.17;7.38;;;;;;;5.38;100.00;100932.06;4947440;28;20588;-82
2021/04/20 02:51:36;;;;;;;20.27;8.60;;;;;;;5.43;100.00;100924.94;4982865;28;20058;-80
2021/04/20 02:54:03;;;;;;;18.35;7.80;;;;;;;5.43;100.00;100923.16;4972783;28;20058;-80
2021/04/20 02:56:30;;;;;;;22.80;7.95;;;;;;;5.43;100.00;100925.78;4986261;28;20046;-81
2021/04/20 02:59:01;;;;;;;15.43;7.45;;;;;;;5.37;100.00;100925.16;4990720;28;20054;-81
2021/04/20 03:01:30;;;;;;;19.60;8.05;;;;;;;5.31;100.00;100923.56;4973556;28;20129;-81
2021/04/20 03:03:57;;;;;;;18.95;7.95;;;;;;;5.24;100.00;100924.69;4983864;28;20093;-82
2021/04/20 03:06:24;;;;;;;19.05;8.13;;;;;;;5.20;100.00;100928.28;4973923;28;20042;-81
2021/04/20 03:08:54;;;;;;;21.40;7.55;;;;;;;5.12;100.00;100922.44;4979766;28;20070;-79
2021/04/20 03:11:33;;;;;;;20.20;6.93;;;;;;;5.10;100.00;100921.66;4959736;28;20090;-82
2021/04/20 03:14:03;;;;;;;20.10;7.30;;;;;;;5.04;100.00;100925.28;4968408;28;20073;-82
2021/04/20 03:16:35;;;;;;;21.27;7.25;;;;;;;5.06;100.00;100924.34;4993731;28;20499;-82
2021/04/20 03:19:04;;;;;;;19.80;7.75;;;;;;;4.98;100.00;100928.94;4973405;28;20051;-83
2021/04/20 03:21:31;;;;;;;22.17;9.75;;;;;;;4.99;100.00;100919.38;4979479;28;20105;-82
2021/04/20 03:24:01;;;;;;;29.40;8.30;;;;;;;4.98;100.00;100918.50;4979698;28;20154;-81
2021/04/20 03:26:40;;;;;;;18.90;7.57;;;;;;;4.92;100.00;100923.09;5004036;28;20081;-81
2021/04/20 03:29:09;;;;;;;18.83;6.85;;;;;;;4.83;100.00;100914.63;4973482;28;20074;-80
2021/04/20 03:31:40;;;;;;;27.08;7.75;;;;;;;4.84;100.00;100915.47;4974351;28;20081;-82
2021/04/20 03:34:23;;;;;;;20.35;7.80;;;;;;;4.80;100.00;100909.50;4973153;28;20055;-82
2021/04/20 03:36:57;;;;;;;21.27;8.43;;;;;;;4.78;100.00;100902.63;4983219;28;20039;-81
2021/04/20 03:39:25;;;;;;;15.55;7.93;;;;;;;4.72;100.00;100898.44;4992264;28;20054;-80
2021/04/20 03:42:02;;;;;;;19.90;7.80;;;;;;;4.67;100.00;100897.72;4985564;28;20051;-82
2021/04/20 03:44:42;;;;;;;19.80;8.05;;;;;;;4.59;100.00;100910.13;4980024;28;20077;-82
2021/04/20 03:47:15;;;;;;;20.95;8.18;;;;;;;4.66;100.00;100903.00;4954850;28;20109;-80
2021/04/20 03:49:43;;;;;;;22.60;8.75;;;;;;;4.83;100.00;100911.19;4965621;28;20162;-81
2021/04/20 03:52:13;;;;;;;24.63;8.45;;;;;;;4.76;100.00;100897.44;4962473;28;20046;-82
2021/04/20 03:54:43;;;;;;;18.13;8.00;;;;;;;4.62;100.00;100901.38;4978481;28;20098;-80
2021/04/20 03:57:11;;;;;;;27.15;9.57;;;;;;;4.71;100.00;100907.16;4977524;28;20484;-81
2021/04/20 03:59:38;;;;;;;23.52;8.88;;;;;;;4.71;100.00;100907.16;4975765;28;20035;-82
2021/04/20 04:02:06;;;;;;;25.52;9.93;;;;;;;4.58;100.00;100904.06;4968891;28;20074;-80
2021/04/20 04:04:33;;;;;;;17.02;8.75;;;;;;;4.52;100.00;100911.22;4982732;23;20166;-73
2021/04/20 04:07:01;;;;;;;27.85;9.70;;;;;;;4.50;100.00;100913.03;4966442;28;20051;-73
2021/04/20 04:09:28;;;;;;;21.50;8.52;;;;;;;4.52;100.00;100916.44;4959847;28;20046;-76
2021/04/20 04:12:02;;;;;;;23.58;9.80;;;;;;;4.56;100.00;100911.09;4961438;28;20107;-74
2021/04/20 04:14:31;;;;;;;18.20;8.40;;;;;;;4.56;100.00;100918.94;4991920;28;20178;-74
2021/04/20 04:17:02;;;;;;;22.40;7.93;;;;;;;4.58;100.00;100917.09;4974397;28;20055;-74
2021/04/20 04:19:32;;;;;;;18.13;7.97;;;;;;;4.55;100.00;100925.03;4961428;28;20139;-73
2021/04/20 04:22:06;;;;;;;20.83;8.35;;;;;;;4.57;100.00;100922.38;4933409;28;20528;-74
2021/04/20 04:24:36;;;;;;;27.05;8.18;;;;;;;4.57;100.00;100919.78;4962250;28;20576;-73
2021/04/20 04:27:05;;;;;;;20.70;7.85;;;;;;;4.64;100.00;100913.50;4969677;28;20061;-76
2021/04/20 04:29:34;;;;;;;22.42;8.95;;;;;;;4.58;100.00;100918.88;4974852;28;20050;-74
2021/04/20 04:32:02;;;;;;;20.30;8.15;;;;;;;4.66;100.00;100923.88;4973944;28;20078;-74
2021/04/20 04:34:29;;;;;;;16.55;8.35;;;;;;;4.77;100.00;100922.66;4971520;28;20050;-73
2021/04/20 04:36:56;;;;;;;24.52;7.93;;;;;;;4.66;100.00;100929.94;4955002;28;20055;-72
2021/04/20 04:39:23;;;;;;;18.77;8.15;;;;;;;4.74;100.00;100930.56;4975345;28;20054;-71
2021/04/20 04:41:50;;;;;;;17.13;8.32;;;;;;;4.89;100.00;100931.00;4954268;28;20142;-74
2021/04/20 04:44:18;;;;;;;26.73;8.55;;;;;;;5.48;98.06;100931.69;4940686;28;20066;-77
2021/04/20 04:46:45;;;;;;;25.40;7.78;;;;;;;5.99;93.01;100928.28;4965521;28;20085;-75
2021/04/20 04:49:12;;;;;;;15.95;6.20;;;;;;;6.69;88.41;100932.69;4975677;28;20146;-73
2021/04/20 04:51:40;;;;;;;14.45;6.18;;;;;;;7.91;83.64;100931.25;4983005;28;20086;-74
2021/04/20 04:54:11;;;;;;;18.10;6.50;;;;;;;8.52;79.73;100929.44;4960771;28;20146;-75
2021/04/20 04:56:41;;;;;;;15.35;6.40;;;;;;;7.93;81.00;100929.44;4974267;28;20063;-72
2021/04/20 04:59:09;;;;;;;16.33;6.50;;;;;;;8.02;79.84;100929.03;4958690;28;20618;-73
2021/04/20 05:01:37;;;;;;;14.50;5.82;;;;;;;8.96;75.30;100921.28;4988830;28;20122;-75
2021/04/20 05:04:11;;;;;;;15.30;6.18;;;;;;;8.27;78.83;100926.19;4955596;28;20074;-74
2021/04/20 05:06:44;;;;;;;15.05;6.40;;;;;;;8.09;78.56;100933.09;4987335;28;20145;-72
2021/04/20 05:09:12;;;;;;;15.55;5.97;;;;;;;8.99;75.13;100926.38;4975744;28;20070;-74
2021/04/20 05:11:40;;;;;;;16.48;5.65;;;;;;;9.18;72.53;100923.72;4975531;28;20062;-73
2021/04/20 05:14:07;;;;;;;14.90;5.97;;;;;;;9.58;71.83;100929.63;4976337;28;20353;-74
2021/04/20 05:16:34;;;;;;;11.93;6.25;;;;;;;10.23;70.02;100933.31;4967143;28;20079;-74
2021/04/20 05:19:05;;;;;;;14.77;5.50;;;;;;;10.63;67.16;100934.72;4963815;28;20054;-74
2021/04/20 05:21:32;;;;;;;16.00;5.82;;;;;;;9.67;69.32;100926.53;4970340;28;20050;-74
2021/04/20 05:23:59;;;;;;;14.95;6.00;;;;;;;10.63;66.86;100928.59;4971065;28;20122;-73
2021/04/20 05:26:27;;;;;;;15.77;6.20;;;;;;;11.21;64.57;100927.97;4964840;28;20123;-74
2021/04/20 05:28:56;;;;;;;20.27;7.18;;;;;;;11.30;63.20;100929.25;4978998;28;20054;-75
2021/04/20 05:31:24;;;;;;;14.38;6.15;;;;;;;10.80;64.97;100919.75;4972449;28;20568;-74
2021/04/20 05:33:59;;;;;;;20.00;6.22;;;;;;;9.87;67.73;100934.28;4998118;28;20076;-74
2021/04/20 05:36:26;;;;;;;16.70;6.70;;;;;;;10.94;65.06;100935.63;4960842;28;20070;-72
2021/04/20 05:38:58;;;;;;;16.02;6.15;;;;;;;11.44;63.50;100936.34;4988736;28;20058;-74
2021/04/20 05:41:29;;;;;;;17.98;6.90;;;;;;;11.75;61.14;100940.69;4966751;28;21483;-72
2021/04/20 05:43:58;;;;;;;18.17;6.10;;;;;;;11.57;60.60;100937.34;4958360;28;20109;-71
2021/04/20 05:46:25;;;;;;;16.58;6.80;;;;;;;11.61;61.76;100939.72;4980508;28;20081;-73
2021/04/20 05:48:52;;;;;;;14.00;6.00;;;;;;;11.93;60.13;100936.16;4960706;28;20477;-72
2021/04/20 05:51:20;;;;;;;16.60;6.63;;;;;;;12.64;58.07;100937.03;4965983;28;20753;-76
2021/04/20 05:53:48;;;;;;;16.65;6.45;;;;;;;13.15;55.74;100932.03;4971748;28;20133;-72
2021/04/20 05:56:17;;;;;;;14.10;6.65;;;;;;;13.88;53.79;100931.63;4963148;28;20141;-71
2021/04/20 05:58:44;;;;;;;19.52;7.38;;;;;;;14.34;52.02;100932.91;4975094;28;20536;-72
2021/04/20 06:01:11;;;;;;;18.00;6.93;;;;;;;13.72;54.04;100927.47;4951509;28;20045;-71
2021/04/20 06:03:40;;;;;;;14.45;7.00;;;;;;;15.13;49.92;100932.56;4972858;28;20051;-71
2021/04/20 06:06:07;;;;;;;12.80;6.28;;;;;;;15.42;48.87;100932.22;4957000;28;20047;-71
2021/04/20 06:08:36;;;;;;;17.38;7.50;;;;;;;15.73;47.81;100929.97;4971673;28;20046;-72
2021/04/20 06:11:04;;;;;;;16.98;6.63;;;;;;;16.17;46.85;100927.41;4959923;28;20062;-70
2021/04/20 06:13:31;;;;;;;19.45;6.75;;;;;;;17.56;44.61;100925.13;4964990;28;20051;-72
2021/04/20 06:15:58;;;;;;;12.27;8.38;;;;;;;17.96;42.32;100927.97;4996581;28;20065;-70
2021/04/20 06:18:30;;;;;;;17.40;6.15;;;;;;;17.11;44.04;100928.81;4998788;28;20077;-72
2021/04/20 06:20:59;;;;;;;18.60;7.18;;;;;;;18.10;41.84;100925.00;4980252;28;20082;-71
2021/04/20 06:23:26;;;;;;;23.85;6.50;;;;;;;18.25;41.15;100924.63;4948564;28;20072;-72
2021/04/20 06:25:57;;;;;;;19.45;7.03;;;;;;;19.06;39.38;100922.84;4957516;28;20034;-71
2021/04/20 06:28:24;;;;;;;16.05;6.45;;;;;;;18.94;39.95;100911.44;4983039;28;20085;-71
2021/04/20 06:30:55;;;;;;;18.50;7.97;;;;;;;17.36;42.37;100909.00;4964176;28;20229;-75
2021/04/20 06:33:23;;;;;;;19.95;8.23;;;;;;;17.98;41.92;100915.38;4984997;28;20702;-72
2021/04/20 06:35:51;;;;;;;17.80;7.20;;;;;;;18.91;39.62;100906.38;4973213;28;20142;-70
2021/04/20 06:38:18;;;;;;;23.30;7.47;;;;;;;18.04;40.79;100914.00;4952744;28;20130;-72
2021/04/20 06:40:46;;;;;;;16.95;7.22;;;;;;;14.65;48.89;100918.38;4973213;28;20427;-72
2021/04/20 06:56:09;;;;;;;21.02;7.50;;;;;;;17.23;42.75;100912.81;4973716;28;20030;-72
2021/04/20 06:59:14;;;;;;;20.02;7.68;;;;;;;18.78;39.94;100916.44;4963073;28;20109;-71
2021/04/20 07:01:45;;;;;;;16.33;8.02;;;;;;;19.21;39.23;100913.44;4975292;28;20089;-72
2021/04/20 07:04:17;;;;;;;25.23;7.70;;;;;;;19.53;38.38;100907.81;4950564;28;20298;-72
2021/04/20 07:07:06;;;;;;;17.88;8.00;;;;;;;19.17;38.45;100912.03;4954828;28;20055;-72
2021/04/20 07:09:36;;;;;;;21.38;9.00;;;;;;;21.28;34.83;100899.13;4950043;28;20077;-72
2021/04/20 07:12:03;;;;;;;21.13;8.48;;;;;;;21.45;34.70;100906.38;4965592;28;20062;-73
2021/04/20 07:14:46;;;;;;;22.58;7.82;;;;;;;21.30;34.56;100897.13;4999887;28;20047;-73
2021/04/20 07:17:18;;;;;;;23.08;7.38;;;;;;;22.29;32.55;100892.41;4962647;28;20135;-71
2021/04/20 07:20:22;;;;;;;15.25;7.25;;;;;;;22.05;32.82;100902.94;4964268;28;20055;-70
2021/04/20 07:23:19;;;;;;;16.17;7.57;;;;;;;19.67;36.66;100907.41;4952330;28;20035;-72
2021/04/20 07:25:59;;;;;;;17.83;9.00;;;;;;;20.28;36.35;100911.50;4965822;28;20161;-72
2021/04/20 07:28:47;;;;;;;20.80;8.35;;;;;;;21.25;34.64;100905.63;4967627;28;20061;-72
2021/04/20 07:31:31;;;;;;;18.35;7.55;;;;;;;20.55;35.89;100901.88;4963210;28;20039;-71
2021/04/20 07:34:18;;;;;;;23.05;8.50;;;;;;;21.08;34.95;100896.63;4966347;28;20055;-72
2021/04/20 07:37:12;;;;;;;25.60;9.23;;;;;;;19.88;36.65;100901.06;4965555;28;20113;-71
2021/04/20 07:40:02;;;;;;;17.23;7.82;;;;;;;21.05;34.93;100893.41;4965851;28;20101;-71
2021/04/20 07:42:58;;;;;;;17.83;7.68;;;;;;;22.94;32.15;100897.19;4975488;28;20089;-74
2021/04/20 07:45:39;;;;;;;18.95;8.20;;;;;;;23.78;30.07;100892.59;4983785;28;20053;-71
2021/04/20 07:48:14;;;;;;;16.67;8.85;;;;;;;23.50;30.55;100892.88;4954698;28;20101;-71
2021/04/20 07:50:45;;;;;;;19.77;9.20;;;;;;;23.61;30.62;100889.03;4975588;28;20158;-72
2021/04/20 07:54:01;;;;;;;22.05;10.90;;;;;;;22.56;31.38;100895.84;4969250;28;20109;-74
2021/04/20 07:56:31;;;;;;;23.38;12.00;;;;;;;21.47;33.44;100896.31;4947791;28;20130;-71
2021/04/20 07:59:03;;;;;;;24.13;12.10;;;;;;;22.66;31.94;100891.22;4955043;28;20047;-72
2021/04/20 08:05:48;;;;;;;29.85;11.25;;;;;;;22.94;31.64;100889.16;4966889;28;20223;-71
2021/04/20 08:08:28;;;;;;;21.38;10.05;;;;;;;23.49;30.41;100881.31;4954601;28;20138;-70
2021/04/20 08:11:08;;;;;;;17.83;8.30;;;;;;;22.20;32.02;100880.78;4980149;28;20600;-68
2021/04/20 08:13:52;;;;;;;22.70;8.65;;;;;;;23.34;30.75;100883.00;4955288;28;20062;-70
2021/04/20 08:16:57;;;;;;;20.98;8.38;;;;;;;21.91;33.12;100880.25;4963123;28;21065;-69
2021/04/20 08:19:31;;;;;;;15.13;8.10;;;;;;;23.31;31.29;100877.09;4963130;28;20060;-69
2021/04/20 08:21:58;;;;;;;13.40;7.68;;;;;;;24.38;28.92;100871.44;4970635;28;20078;-70
2021/04/20 08:24:32;;;;;;;19.23;7.90;;;;;;;25.59;27.66;100872.72;4964577;28;20725;-69
2021/04/20 08:27:13;;;;;;;21.02;7.20;;;;;;;25.75;26.87;100873.38;4986166;28;20062;-71
2021/04/20 08:29:42;;;;;;;13.93;8.00;;;;;;;23.30;29.28;100878.13;4969612;28;20097;-70
2021/04/20 08:32:15;;;;;;;14.65;7.28;;;;;;;23.15;30.37;100880.63;4956199;28;20704;-70
2021/04/20 08:34:50;;;;;;;18.42;7.82;;;;;;;22.79;30.82;100869.28;4988123;28;20047;-70
2021/04/20 08:37:29;;;;;;;18.58;7.60;;;;;;;21.52;32.90;100867.22;4965749;28;20059;-72
2021/04/20 08:40:13;;;;;;;18.92;7.28;;;;;;;19.21;37.50;100874.25;4992343;23;20046;-76
2021/04/20 08:43:17;;;;;;;21.25;8.90;;;;;;;17.40;40.69;100872.34;4991171;28;20563;-71
2021/04/20 08:46:01;;;;;;;18.95;8.43;;;;;;;15.85;45.45;100876.78;4993374;28;20102;-72
2021/04/20 08:48:53;;;;;;;;;;;;;;;16.87;43.74;100873.13;5007847;28;20100;-69
2021/04/20 08:51:31;;;;;;;15.20;8.55;;;;;;;16.69;44.11;100870.09;4992783;28;19935;-72
2021/04/20 08:54:43;;;;;;;17.63;7.80;;;;;;;16.03;44.90;100870.97;4996415;28;20086;-69
2021/04/20 08:57:18;;;;;;;23.15;8.60;;;;;;;16.08;45.51;100872.34;4985048;28;20061;-69
2021/04/20 09:00:18;;;;;;;22.23;8.18;;;;;;;16.22;44.95;100867.75;4998910;28;20096;-70
2021/04/20 09:03:19;;;;;;;17.55;7.60;;;;;;;16.30;45.17;100868.84;4990310;28;20137;-69
2021/04/20 09:05:50;;;;;;;19.23;8.55;;;;;;;16.13;45.90;100861.34;4990399;28;20061;-72
2021/04/20 09:08:30;;;;;;;18.90;8.82;;;;;;;15.93;46.34;100862.88;4973582;28;20058;-71
2021/04/20 09:11:09;;;;;;;17.80;7.78;;;;;;;16.00;45.55;100857.97;5003284;28;20571;-70
2021/04/20 09:13:47;;;;;;;19.73;8.40;;;;;;;15.52;46.46;100860.72;4987475;28;20038;-71
2021/04/20 09:16:20;;;;;;;12.77;7.05;;;;;;;15.92;45.78;100863.88;4974804;28;20081;-69
2021/04/20 09:18:47;;;;;;;21.92;8.07;;;;;;;16.27;45.55;100861.09;4966726;28;20061;-69
2021/04/20 09:21:21;;;;;;;22.58;7.80;;;;;;;16.82;44.07;100861.19;4977156;28;20042;-71
2021/04/20 09:24:17;;;;;;;16.50;8.20;;;;;;;16.70;44.25;100855.84;4987184;28;20054;-70
2021/04/20 09:27:15;;;;;;;22.70;8.13;;;;;;;15.35;47.16;100867.31;4991952;28;20046;-70
2021/04/20 09:29:54;;;;;;;22.05;8.80;;;;;;;16.11;45.92;100856.13;5006322;28;20146;-73
2021/04/20 09:32:23;;;;;;;21.25;8.70;;;;;;;16.36;45.53;100860.38;4972640;28;20054;-72
2021/04/20 09:34:51;;;;;;;18.80;9.50;;;;;;;15.71;45.09;100869.00;4987000;28;20050;-70
2021/04/20 09:37:18;;;;;;;19.38;8.75;;;;;;;15.99;44.95;100861.59;4986901;28;20074;-71
2021/04/20 09:39:47;;;;;;;17.13;8.40;;;;;;;16.16;45.22;100859.28;4987113;28;20315;-69
2021/04/20 09:42:15;;;;;;;15.00;8.48;;;;;;;16.36;44.51;100859.53;4978475;28;20138;-72
2021/04/20 09:45:13;;;;;;;22.88;8.45;;;;;;;15.93;46.23;100862.88;4980478;28;21103;-70
2021/04/20 09:48:04;;;;;;;16.95;8.40;;;;;;;15.72;45.89;100867.22;4985352;28;20149;-71
2021/04/20 09:50:51;;;;;;;24.45;10.32;;;;;;;16.38;45.26;100854.94;4989193;28;20133;-71
2021/04/20 09:53:33;;;;;;;23.77;8.27;;;;;;;15.58;46.29;100855.81;4986768;28;20054;-71
2021/04/20 09:56:18;;;;;;;19.98;7.93;;;;;;;15.94;46.82;100859.28;4988580;28;20056;-69
2021/04/20 09:58:46;;;;;;;22.73;8.23;;;;;;;16.25;45.54;100854.22;5006898;28;20219;-71
2021/04/20 10:01:34;;;;;;;19.63;8.98;;;;;;;14.92;47.90;100859.91;4994660;28;20069;-70
2021/04/20 10:08:54;;;;;;;25.67;8.27;;;;;;;16.40;45.00;100845.03;4981083;28;20120;-71
2021/04/20 10:11:43;;;;;;;19.92;8.52;;;;;;;16.58;43.96;100845.38;4988273;28;20146;-71
2021/04/20 10:14:28;;;;;;;19.05;7.88;;;;;;;16.73;43.77;100846.81;4988759;28;21094;-72
2021/04/20 10:17:17;;;;;;;16.53;8.27;;;;;;;16.87;42.56;100845.69;4982770;28;20070;-69
2021/04/20 10:19:50;;;;;;;23.35;11.85;;;;;;;16.96;43.15;100847.59;4984990;28;21049;-70
2021/04/20 10:22:46;;;;;;;19.52;8.75;;;;;;;16.49;43.15;100839.00;4999299;28;20058;-70
2021/04/20 10:25:37;;;;;;;28.48;14.02;;;;;;;16.52;43.79;100836.06;4990719;28;20100;-70
2021/04/20 10:28:10;;;;;;;23.60;13.45;;;;;;;16.83;42.56;100841.59;4988712;28;20074;-70
2021/04/20 10:30:41;;;;;;;20.10;9.20;;;;;;;16.82;43.22;100837.25;4986786;28;20030;-71
2021/04/20 10:33:10;;;;;;;20.00;9.25;;;;;;;17.06;42.73;100837.88;4990555;28;20030;-70
2021/04/20 10:36:21;;;;;;;20.92;8.45;;;;;;;17.04;42.20;100839.84;4967291;28;20379;-72
2021/04/20 10:38:51;;;;;;;19.15;7.95;;;;;;;16.41;44.17;100826.31;5003667;28;20058;-69
2021/04/20 10:41:33;;;;;;;14.57;8.35;;;;;;;16.94;43.48;100834.44;5000509;28;20998;-70
2021/04/20 10:44:01;;;;;;;19.90;8.35;;;;;;;16.93;43.01;100829.22;4988186;28;20050;-71
2021/04/20 10:46:29;;;;;;;15.63;7.80;;;;;;;17.19;42.68;100829.72;4982673;28;20045;-71
2021/04/20 10:48:57;;;;;;;17.20;8.30;;;;;;;17.24;42.76;100827.53;4987320;28;21039;-69
2021/04/20 10:51:33;;;;;;;20.38;8.93;;;;;;;17.45;42.31;100822.22;4984612;28;20076;-70
2021/04/20 10:54:03;;;;;;;24.63;8.55;;;;;;;17.48;42.87;100821.97;4968701;28;20639;-70
2021/04/20 10:56:31;;;;;;;16.77;7.75;;;;;;;17.36;43.11;100820.34;4977393;28;20050;-71
2021/04/20 10:58:59;;;;;;;22.20;8.70;;;;;;;17.23;42.60;100814.38;4986582;28;20145;-70
2021/04/20 11:01:28;;;;;;;28.23;8.68;;;;;;;17.26;43.23;100811.47;4981949;28;20076;-70
2021/04/20 11:03:59;;;;;;;14.77;8.60;;;;;;;17.43;42.41;100808.22;4980489;28;20137;-70
2021/04/20 11:06:44;;;;;;;17.90;9.20;;;;;;;17.49;42.45;100805.03;4980105;28;21059;-72
2021/04/20 11:09:11;;;;;;;21.50;9.40;;;;;;;17.40;43.18;100803.16;4981176;28;20042;-71
2021/04/20 11:11:40;;;;;;;18.88;9.32;;;;;;;17.61;42.28;100803.16;4983413;28;20136;-70
2021/04/20 11:14:07;;;;;;;20.63;8.98;;;;;;;17.26;43.32;100800.81;4987067;28;20046;-69
2021/04/20 11:16:42;;;;;;;23.27;9.23;;;;;;;17.21;43.93;100796.72;4983819;28;20058;-72
2021/04/20 11:19:11;;;;;;;18.88;8.63;;;;;;;16.98;43.89;100795.16;4971018;28;20589;-73
2021/04/20 11:21:42;;;;;;;15.38;9.05;;;;;;;16.96;44.03;100797.06;4986208;28;20078;-71
2021/04/20 11:24:19;;;;;;;21.92;8.60;;;;;;;17.21;43.58;100791.41;4974898;28;20145;-70
2021/04/20 11:26:53;;;;;;;20.92;9.27;;;;;;;17.52;42.43;100798.59;4990308;28;20117;-70
2021/04/20 11:29:30;;;;;;;23.00;8.40;;;;;;;17.91;42.27;100789.84;4969511;28;20133;-72
2021/04/20 11:31:57;;;;;;;17.73;9.45;;;;;;;17.88;41.51;100789.31;4986100;28;20037;-73
2021/04/20 11:34:25;;;;;;;23.58;9.60;;;;;;;17.24;42.56;100787.63;4988349;28;20047;-72
2021/04/20 11:36:56;;;;;;;15.45;9.07;;;;;;;17.46;41.72;100776.00;4971661;28;20142;-72
2021/04/20 11:39:25;;;;;;;15.48;8.70;;;;;;;17.65;41.70;100780.59;4966838;28;20157;-72
2021/04/20 11:42:04;;;;;;;16.92;9.43;;;;;;;17.71;41.60;100778.25;4983127;28;20441;-73
2021/04/20 11:44:47;;;;;;;17.17;8.60;;;;;;;17.96;40.86;100781.47;4983614;28;20496;-72
2021/04/20 11:47:14;;;;;;;17.50;8.07;;;;;;;17.79;41.96;100771.47;4980640;28;20063;-71
2021/04/20 11:50:08;;;;;;;13.60;7.85;;;;;;;17.91;40.96;100765.88;4982908;28;20119;-70
2021/04/20 11:52:35;;;;;;;17.10;8.35;;;;;;;17.17;41.82;100775.81;4980497;28;20133;-72
2021/04/20 11:55:11;;;;;;;19.23;7.95;;;;;;;17.53;42.06;100761.19;4966939;28;20086;-70
2021/04/20 11:57:38;;;;;;;18.67;8.73;;;;;;;17.80;40.96;100767.81;4969636;28;20435;-71
2021/04/20 12:00:06;;;;;;;24.38;8.55;;;;;;;18.21;40.78;100766.84;4986098;28;20062;-71
2021/04/20 12:02:33;;;;;;;14.85;7.75;;;;;;;17.95;41.20;100769.97;4984147;28;20105;-70
2021/04/20 12:05:09;;;;;;;17.77;8.23;;;;;;;17.52;41.43;100764.84;4973419;28;20046;-71
2021/04/20 12:07:36;;;;;;;15.88;7.60;;;;;;;17.57;41.65;100761.78;4983930;28;20042;-71
2021/04/20 12:10:08;;;;;;;17.35;8.45;;;;;;;17.51;41.51;100764.97;4995816;28;20121;-70
2021/04/20 12:12:35;;;;;;;15.93;7.88;;;;;;;17.74;41.28;100763.84;4961313;28;20533;-71